Admiral — WCY6529 — position and weather

sailwx.info

Track history (hours):
 
Tides and Currents Weather Stations Pressure Air Temp Water Temp Dewpoint Dewpoint Depression Visibility Wind Speed Wind Dir Waves Ship Positions

Admiral

Owner: CROWLEY MARINE SERVICES INC, SEATTLE, WA. More information available from US FCC via Universal Licensing System and Coast Guard Vessel Documentation Center.

Last reported at 2014-Nov-23 18:32 UTC. Time now 2014-Nov-23 19:02 UTC.
Position N 33°44' W 118°17'.

; draft 5.3 m.

Type: Tug. MMSI: 366755020.

Date/timePositionNaut miles runAvg speedWind from/ knotsBaromVisibWave heightAir tempDewpointWater temp
2014-Nov-23 18:32N 33°44' W 118°17'0 0.0
2014-Nov-23 17:33N 33°44' W 118°17'1 0.2
2014-Nov-23 14:05N 33°45' W 118°16'2 3.4
2014-Nov-23 13:33N 33°46' W 118°14'1 0.9
2014-Nov-23 12:33N 33°46' W 118°16'2 0.2
2014-Nov-23 03:32N 33°44' W 118°17'0 0.0
2014-Nov-23 02:08N 33°44' W 118°17'0 0.0
2014-Nov-23 01:33N 33°44' W 118°17'0 0.0
2014-Nov-23 00:29N 33°44' W 118°17'0 0.0
2014-Nov-22 23:33N 33°44' W 118°17'0 0.0
2014-Nov-22 22:33N 33°44' W 118°17'0 0.0
2014-Nov-22 21:33N 33°44' W 118°17'3 1.5
2014-Nov-22 19:20N 33°44' W 118°13'1 1.7
2014-Nov-22 18:33N 33°45' W 118°13'3 2.8
2014-Nov-22 17:23N 33°43' W 118°10'4 2.0
2014-Nov-22 15:33N 33°45' W 118°13'0 0.0
2014-Nov-22 14:33N 33°45' W 118°13'1 1.2
2014-Nov-22 13:31N 33°45' W 118°14'2 0.2
2014-Nov-22 06:34N 33°45' W 118°16'3 0.4
2014-Nov-21 22:32N 33°43' W 118°14'2 2.0
2014-Nov-21 21:30N 33°45' W 118°12'4 3.5
2014-Nov-21 20:29N 33°44' W 118°16'1 0.5
2014-Nov-21 19:24N 33°44' W 118°17'0 0.0
2014-Nov-21 17:25N 33°44' W 118°17'1 0.8
2014-Nov-21 16:33N 33°45' W 118°16'1 0.3
2014-Nov-21 11:34N 33°46' W 118°15'3 2.6
2014-Nov-21 10:31N 33°43' W 118°16'1 0.9
2014-Nov-21 09:17N 33°44' W 118°17'2 0.1
2014-Nov-20 15:33N 33°46' W 118°16'0 0.3
2014-Nov-20 14:30N 33°46' W 118°16'2 0.9
2014-Nov-20 12:33N 33°44' W 118°17'3 3.4
2014-Nov-20 11:33N 33°46' W 118°13'1 0.9
2014-Nov-20 10:33N 33°45' W 118°13'3 1.0
2014-Nov-20 07:31N 33°44' W 118°17'0 0.0
2014-Nov-20 06:33N 33°44' W 118°17'0 0.0
2014-Nov-20 05:29N 33°44' W 118°17'0 0.0
2014-Nov-20 03:33N 33°44' W 118°17'0 0.0
2014-Nov-20 02:33N 33°44' W 118°17'0 0.0
2014-Nov-20 01:33N 33°44' W 118°17'0 0.1
2014-Nov-20 00:33N 33°44' W 118°17'4 3.9
2014-Nov-19 23:33N 33°45' W 118°12'1 1.4
2014-Nov-19 22:33N 33°43' W 118°13'3 3.5
2014-Nov-19 21:33N 33°44' W 118°17'0 0.0
2014-Nov-19 20:33N 33°44' W 118°17'0 0.0
2014-Nov-19 18:32N 33°44' W 118°17'0 0.0
2014-Nov-19 17:33N 33°44' W 118°17'3 1.0
2014-Nov-19 14:33N 33°44' W 118°13'2 1.8
2014-Nov-19 13:33N 33°46' W 118°14'3 3.3
2014-Nov-19 12:33N 33°43' W 118°11'2 1.7
2014-Nov-19 11:34N 33°43' W 118°13'3 3.0
2014-Nov-19 10:33N 33°44' W 118°17'0 0.0
2014-Nov-19 09:33N 33°44' W 118°17'0 0.0
2014-Nov-19 08:33N 33°44' W 118°17'0 0.0
2014-Nov-19 07:33N 33°44' W 118°17'3 3.2
2014-Nov-19 06:33N 33°46' W 118°13'1 0.6
2014-Nov-19 05:33N 33°46' W 118°13'0 0.5
2014-Nov-19 04:33N 33°46' W 118°13'3 2.9
2014-Nov-19 03:33N 33°43' W 118°11'2 2.1
2014-Nov-19 02:34N 33°45' W 118°13'1 1.4
2014-Nov-19 01:33N 33°46' W 118°13'4 4.1
2014-Nov-19 00:34N 33°43' W 118°16'1 1.0
2014-Nov-18 23:33N 33°44' W 118°15'0 0.3
2014-Nov-18 22:33N 33°44' W 118°15'1 0.8
2014-Nov-18 21:34N 33°43' W 118°16'1 1.3
2014-Nov-18 20:30N 33°44' W 118°17'0 0.0
2014-Nov-18 19:33N 33°44' W 118°17'0 0.0
2014-Nov-18 18:31N 33°44' W 118°17'0 0.0
2014-Nov-18 17:32N 33°44' W 118°17'0 0.0
2014-Nov-18 16:33N 33°44' W 118°17'0 0.0
2014-Nov-18 15:33N 33°44' W 118°17'3 3.4
2014-Nov-18 14:33N 33°46' W 118°13'2 1.9
2014-Nov-18 13:33N 33°45' W 118°13'1 1.2
2014-Nov-18 12:33N 33°44' W 118°12'4 3.9
2014-Nov-18 11:33N 33°44' W 118°17'0 0.0
2014-Nov-18 10:33N 33°44' W 118°17'0 0.0
2014-Nov-18 09:33N 33°44' W 118°17'0 0.0
2014-Nov-18 08:33N 33°44' W 118°17'0 0.0
2014-Nov-18 07:33N 33°44' W 118°17'0 0.0
2014-Nov-18 06:33N 33°44' W 118°17'0 0.0
2014-Nov-18 05:33N 33°44' W 118°17'0 0.0
2014-Nov-18 04:33N 33°44' W 118°17'0 0.3
2014-Nov-18 03:33N 33°45' W 118°17'0 0.4
2014-Nov-18 02:33N 33°45' W 118°16'1 0.7
2014-Nov-18 01:33N 33°44' W 118°17'0 0.0
2014-Nov-18 00:33N 33°44' W 118°17'0 0.0
2014-Nov-17 23:33N 33°44' W 118°17'0 0.0
2014-Nov-17 22:06N 33°44' W 118°17'0 0.0
2014-Nov-17 21:29N 33°44' W 118°17'1 0.9
2014-Nov-17 20:20N 33°45' W 118°16'0 0.3
2014-Nov-17 19:33N 33°45' W 118°16'3 1.3
2014-Nov-17 17:28N 33°45' W 118°13'2 0.8
2014-Nov-17 15:33N 33°44' W 118°12'3 2.8
2014-Nov-17 14:32N 33°44' W 118°15'1 1.3
2014-Nov-17 13:32N 33°43' W 118°15'1 0.7
2014-Nov-17 12:07N 33°43' W 118°16'0 0.7
2014-Nov-17 11:33N 33°44' W 118°16'0 0.0
2014-Nov-16 12:06N 33°44' W 118°16'2 1.0
2014-Nov-16 10:22N 33°43' W 118°13'2 2.2
2014-Nov-16 09:33N 33°45' W 118°12'4 0.7
2014-Nov-16 04:32N 33°44' W 118°17'0 0.0
2014-Nov-16 01:31N 33°44' W 118°17'0 0.0
2014-Nov-16 00:17N 33°44' W 118°17'0 0.0
2014-Nov-15 23:32N 33°44' W 118°17'3 3.0
2014-Nov-15 22:32N 33°42' W 118°16'13 8.7
2014-Nov-15 21:04N 33°48' W 118°28'510.5
2014-Nov-15 20:33N 33°54' W 118°27'1 1.0
2014-Nov-15 19:34N 33°55' W 118°27'1 0.9
2014-Nov-15 18:33N 33°54' W 118°28'1 0.8
2014-Nov-15 17:33N 33°53' W 118°27'0 0.1
2014-Nov-15 16:33N 33°53' W 118°27'0 0.2
2014-Nov-15 15:33N 33°53' W 118°27'1 1.0
2014-Nov-15 14:33N 33°52' W 118°27'12 1.6
2014-Nov-15 07:08N 33°44' W 118°17'0 0.0
2014-Nov-15 06:33N 33°44' W 118°17'0 0.0
2014-Nov-15 05:31N 33°44' W 118°17'0 0.0
2014-Nov-15 02:25N 33°44' W 118°17'0 0.0
2014-Nov-15 01:27N 33°44' W 118°17'0 0.0
2014-Nov-15 00:21N 33°44' W 118°17'0 0.0
2014-Nov-14 23:33N 33°44' W 118°17'1 0.4
2014-Nov-14 21:31N 33°44' W 118°16'3 3.4
2014-Nov-14 20:33N 33°45' W 118°13'1 1.5
2014-Nov-14 19:33N 33°44' W 118°12'1 0.8
2014-Nov-14 18:33N 33°44' W 118°12'4 3.8
2014-Nov-14 17:27N 33°44' W 118°17'1 0.6
2014-Nov-14 15:33N 33°45' W 118°17'0 0.3
2014-Nov-14 14:33N 33°46' W 118°16'1 0.6
2014-Nov-14 12:14N 33°44' W 118°17'0 0.0
2014-Nov-14 11:32N 33°44' W 118°17'3 0.5
2014-Nov-14 05:33N 33°46' W 118°13'1 1.0
2014-Nov-14 04:33N 33°45' W 118°13'1 1.5
2014-Nov-14 03:33N 33°44' W 118°12'4 2.7
2014-Nov-14 02:11N 33°44' W 118°17'0 0.0
2014-Nov-13 23:32N 33°44' W 118°17'0 0.0
2014-Nov-13 21:04N 33°44' W 118°17'0 0.0
2014-Nov-13 20:30N 33°44' W 118°17'  
Track history (hours):
 
Tides and Currents Weather Stations Pressure Air Temp Water Temp Dewpoint Dewpoint Depression Visibility Wind Speed Wind Dir Waves Ship Positions

Admiral

Owner: CROWLEY MARINE SERVICES INC, SEATTLE, WA. More information available from US FCC via Universal Licensing System and Coast Guard Vessel Documentation Center.

Last reported at 2014-Nov-23 18:32 UTC. Time now 2014-Nov-23 19:02 UTC.
Position N 33°44' W 118°17'.

; draft 5.3 m.

Type: Tug. MMSI: 366755020.

Date/timePositionNaut miles runAvg speedWind from/ knotsBaromVisibWave heightAir tempDewpointWater temp
2014-Nov-23 18:32N 33°44' W 118°17'0 0.0
2014-Nov-23 17:33N 33°44' W 118°17'1 0.2
2014-Nov-23 14:05N 33°45' W 118°16'2 3.4
2014-Nov-23 13:33N 33°46' W 118°14'1 0.9
2014-Nov-23 12:33N 33°46' W 118°16'2 0.2
2014-Nov-23 03:32N 33°44' W 118°17'0 0.0
2014-Nov-23 02:08N 33°44' W 118°17'0 0.0
2014-Nov-23 01:33N 33°44' W 118°17'0 0.0
2014-Nov-23 00:29N 33°44' W 118°17'0 0.0
2014-Nov-22 23:33N 33°44' W 118°17'0 0.0
2014-Nov-22 22:33N 33°44' W 118°17'0 0.0
2014-Nov-22 21:33N 33°44' W 118°17'3 1.5
2014-Nov-22 19:20N 33°44' W 118°13'1 1.7
2014-Nov-22 18:33N 33°45' W 118°13'3 2.8
2014-Nov-22 17:23N 33°43' W 118°10'4 2.0
2014-Nov-22 15:33N 33°45' W 118°13'0 0.0
2014-Nov-22 14:33N 33°45' W 118°13'1 1.2
2014-Nov-22 13:31N 33°45' W 118°14'2 0.2
2014-Nov-22 06:34N 33°45' W 118°16'3 0.4
2014-Nov-21 22:32N 33°43' W 118°14'2 2.0
2014-Nov-21 21:30N 33°45' W 118°12'4 3.5
2014-Nov-21 20:29N 33°44' W 118°16'1 0.5
2014-Nov-21 19:24N 33°44' W 118°17'0 0.0
2014-Nov-21 17:25N 33°44' W 118°17'1 0.8
2014-Nov-21 16:33N 33°45' W 118°16'1 0.3
2014-Nov-21 11:34N 33°46' W 118°15'3 2.6
2014-Nov-21 10:31N 33°43' W 118°16'1 0.9
2014-Nov-21 09:17N 33°44' W 118°17'2 0.1
2014-Nov-20 15:33N 33°46' W 118°16'0 0.3
2014-Nov-20 14:30N 33°46' W 118°16'2 0.9
2014-Nov-20 12:33N 33°44' W 118°17'3 3.4
2014-Nov-20 11:33N 33°46' W 118°13'1 0.9
2014-Nov-20 10:33N 33°45' W 118°13'3 1.0
2014-Nov-20 07:31N 33°44' W 118°17'0 0.0
2014-Nov-20 06:33N 33°44' W 118°17'0 0.0
2014-Nov-20 05:29N 33°44' W 118°17'0 0.0
2014-Nov-20 03:33N 33°44' W 118°17'0 0.0
2014-Nov-20 02:33N 33°44' W 118°17'0 0.0
2014-Nov-20 01:33N 33°44' W 118°17'0 0.1
2014-Nov-20 00:33N 33°44' W 118°17'4 3.9
2014-Nov-19 23:33N 33°45' W 118°12'1 1.4
2014-Nov-19 22:33N 33°43' W 118°13'3 3.5
2014-Nov-19 21:33N 33°44' W 118°17'0 0.0
2014-Nov-19 20:33N 33°44' W 118°17'0 0.0
2014-Nov-19 18:32N 33°44' W 118°17'0 0.0
2014-Nov-19 17:33N 33°44' W 118°17'3 1.0
2014-Nov-19 14:33N 33°44' W 118°13'2 1.8
2014-Nov-19 13:33N 33°46' W 118°14'3 3.3
2014-Nov-19 12:33N 33°43' W 118°11'2 1.7
2014-Nov-19 11:34N 33°43' W 118°13'3 3.0
2014-Nov-19 10:33N 33°44' W 118°17'0 0.0
2014-Nov-19 09:33N 33°44' W 118°17'0 0.0
2014-Nov-19 08:33N 33°44' W 118°17'0 0.0
2014-Nov-19 07:33N 33°44' W 118°17'3 3.2
2014-Nov-19 06:33N 33°46' W 118°13'1 0.6
2014-Nov-19 05:33N 33°46' W 118°13'0 0.5
2014-Nov-19 04:33N 33°46' W 118°13'3 2.9
2014-Nov-19 03:33N 33°43' W 118°11'2 2.1
2014-Nov-19 02:34N 33°45' W 118°13'1 1.4
2014-Nov-19 01:33N 33°46' W 118°13'4 4.1
2014-Nov-19 00:34N 33°43' W 118°16'1 1.0
2014-Nov-18 23:33N 33°44' W 118°15'0 0.3
2014-Nov-18 22:33N 33°44' W 118°15'1 0.8
2014-Nov-18 21:34N 33°43' W 118°16'1 1.3
2014-Nov-18 20:30N 33°44' W 118°17'0 0.0
2014-Nov-18 19:33N 33°44' W 118°17'0 0.0
2014-Nov-18 18:31N 33°44' W 118°17'0 0.0
2014-Nov-18 17:32N 33°44' W 118°17'0 0.0
2014-Nov-18 16:33N 33°44' W 118°17'0 0.0
2014-Nov-18 15:33N 33°44' W 118°17'3 3.4
2014-Nov-18 14:33N 33°46' W 118°13'2 1.9
2014-Nov-18 13:33N 33°45' W 118°13'1 1.2
2014-Nov-18 12:33N 33°44' W 118°12'4 3.9
2014-Nov-18 11:33N 33°44' W 118°17'0 0.0
2014-Nov-18 10:33N 33°44' W 118°17'0 0.0
2014-Nov-18 09:33N 33°44' W 118°17'0 0.0
2014-Nov-18 08:33N 33°44' W 118°17'0 0.0
2014-Nov-18 07:33N 33°44' W 118°17'0 0.0
2014-Nov-18 06:33N 33°44' W 118°17'0 0.0
2014-Nov-18 05:33N 33°44' W 118°17'0 0.0
2014-Nov-18 04:33N 33°44' W 118°17'0 0.3
2014-Nov-18 03:33N 33°45' W 118°17'0 0.4
2014-Nov-18 02:33N 33°45' W 118°16'1 0.7
2014-Nov-18 01:33N 33°44' W 118°17'0 0.0
2014-Nov-18 00:33N 33°44' W 118°17'0 0.0
2014-Nov-17 23:33N 33°44' W 118°17'0 0.0
2014-Nov-17 22:06N 33°44' W 118°17'0 0.0
2014-Nov-17 21:29N 33°44' W 118°17'1 0.9
2014-Nov-17 20:20N 33°45' W 118°16'0 0.3
2014-Nov-17 19:33N 33°45' W 118°16'3 1.3
2014-Nov-17 17:28N 33°45' W 118°13'2 0.8
2014-Nov-17 15:33N 33°44' W 118°12'3 2.8
2014-Nov-17 14:32N 33°44' W 118°15'1 1.3
2014-Nov-17 13:32N 33°43' W 118°15'1 0.7
2014-Nov-17 12:07N 33°43' W 118°16'0 0.7
2014-Nov-17 11:33N 33°44' W 118°16'0 0.0
2014-Nov-16 12:06N 33°44' W 118°16'2 1.0
2014-Nov-16 10:22N 33°43' W 118°13'2 2.2
2014-Nov-16 09:33N 33°45' W 118°12'4 0.7
2014-Nov-16 04:32N 33°44' W 118°17'0 0.0
2014-Nov-16 01:31N 33°44' W 118°17'0 0.0
2014-Nov-16 00:17N 33°44' W 118°17'0 0.0
2014-Nov-15 23:32N 33°44' W 118°17'3 3.0
2014-Nov-15 22:32N 33°42' W 118°16'13 8.7
2014-Nov-15 21:04N 33°48' W 118°28'510.5
2014-Nov-15 20:33N 33°54' W 118°27'1 1.0
2014-Nov-15 19:34N 33°55' W 118°27'1 0.9
2014-Nov-15 18:33N 33°54' W 118°28'1 0.8
2014-Nov-15 17:33N 33°53' W 118°27'0 0.1
2014-Nov-15 16:33N 33°53' W 118°27'0 0.2
2014-Nov-15 15:33N 33°53' W 118°27'1 1.0
2014-Nov-15 14:33N 33°52' W 118°27'12 1.6
2014-Nov-15 07:08N 33°44' W 118°17'0 0.0
2014-Nov-15 06:33N 33°44' W 118°17'0 0.0
2014-Nov-15 05:31N 33°44' W 118°17'0 0.0
2014-Nov-15 02:25N 33°44' W 118°17'0 0.0
2014-Nov-15 01:27N 33°44' W 118°17'0 0.0
2014-Nov-15 00:21N 33°44' W 118°17'0 0.0
2014-Nov-14 23:33N 33°44' W 118°17'1 0.4
2014-Nov-14 21:31N 33°44' W 118°16'3 3.4
2014-Nov-14 20:33N 33°45' W 118°13'1 1.5
2014-Nov-14 19:33N 33°44' W 118°12'1 0.8
2014-Nov-14 18:33N 33°44' W 118°12'4 3.8
2014-Nov-14 17:27N 33°44' W 118°17'1 0.6
2014-Nov-14 15:33N 33°45' W 118°17'0 0.3
2014-Nov-14 14:33N 33°46' W 118°16'1 0.6
2014-Nov-14 12:14N 33°44' W 118°17'0 0.0
2014-Nov-14 11:32N 33°44' W 118°17'3 0.5
2014-Nov-14 05:33N 33°46' W 118°13'1 1.0
2014-Nov-14 04:33N 33°45' W 118°13'1 1.5
2014-Nov-14 03:33N 33°44' W 118°12'4 2.7
2014-Nov-14 02:11N 33°44' W 118°17'0 0.0
2014-Nov-13 23:32N 33°44' W 118°17'0 0.0
2014-Nov-13 21:04N 33°44' W 118°17'0 0.0
2014-Nov-13 20:30N 33°44' W 118°17'  

Dump ship's entire track history